sensor_id;sensor_type;location;lat;lon;timestamp;pressure;altitude;pressure_sealevel;temperature;humidity
83496;BME280;73431;40.794;43.836;2024-02-23T00:01:40;84418.56;;;5.18;62.63
83496;BME280;73431;40.794;43.836;2024-02-23T00:04:08;84415.88;;;5.09;63.83
83496;BME280;73431;40.794;43.836;2024-02-23T00:06:36;84424.09;;;5.08;64.23
83496;BME280;73431;40.794;43.836;2024-02-23T00:09:04;84409.28;;;5.05;64.14
83496;BME280;73431;40.794;43.836;2024-02-23T00:11:32;84432.16;;;5.01;66.37
83496;BME280;73431;40.794;43.836;2024-02-23T00:14:07;84416.28;;;4.95;64.87
83496;BME280;73431;40.794;43.836;2024-02-23T00:16:39;84424.00;;;4.99;64.98
83496;BME280;73431;40.794;43.836;2024-02-23T00:19:08;84426.31;;;4.97;64.98
83496;BME280;73431;40.794;43.836;2024-02-23T00:21:37;84441.97;;;4.97;65.76
83496;BME280;73431;40.794;43.836;2024-02-23T00:24:10;84381.72;;;4.57;64.81
83496;BME280;73431;40.794;43.836;2024-02-23T00:26:37;84399.25;;;4.69;63.72
83496;BME280;73431;40.794;43.836;2024-02-23T00:29:05;84437.88;;;4.96;64.52
83496;BME280;73431;40.794;43.836;2024-02-23T00:31:33;84460.09;;;5.00;65.80
83496;BME280;73431;40.794;43.836;2024-02-23T00:34:01;84467.19;;;4.87;65.67
83496;BME280;73431;40.794;43.836;2024-02-23T00:36:29;84482.41;;;4.76;65.87
83496;BME280;73431;40.794;43.836;2024-02-23T00:38:57;84463.84;;;4.49;68.39
83496;BME280;73431;40.794;43.836;2024-02-23T00:41:24;84469.88;;;4.33;68.79
83496;BME280;73431;40.794;43.836;2024-02-23T00:43:52;84492.88;;;4.22;67.90
83496;BME280;73431;40.794;43.836;2024-02-23T00:46:20;84486.41;;;4.14;67.23
83496;BME280;73431;40.794;43.836;2024-02-23T00:48:47;84498.41;;;4.24;65.83
83496;BME280;73431;40.794;43.836;2024-02-23T00:51:15;84497.47;;;4.18;68.28
83496;BME280;73431;40.794;43.836;2024-02-23T00:53:43;84496.78;;;4.01;69.44
83496;BME280;73431;40.794;43.836;2024-02-23T00:56:11;84498.66;;;4.01;69.90
83496;BME280;73431;40.794;43.836;2024-02-23T00:58:40;84505.50;;;3.95;67.61
83496;BME280;73431;40.794;43.836;2024-02-23T01:01:08;84510.81;;;3.91;69.95
83496;BME280;73431;40.794;43.836;2024-02-23T01:03:35;84483.69;;;3.76;67.75
83496;BME280;73431;40.794;43.836;2024-02-23T01:06:03;84508.69;;;3.86;69.25
83496;BME280;73431;40.794;43.836;2024-02-23T01:08:31;84522.91;;;3.69;69.30
83496;BME280;73431;40.794;43.836;2024-02-23T01:10:59;84509.72;;;3.76;68.17
83496;BME280;73431;40.794;43.836;2024-02-23T01:13:27;84516.63;;;3.83;68.13
83496;BME280;73431;40.794;43.836;2024-02-23T01:15:55;84512.94;;;3.80;67.94
83496;BME280;73431;40.794;43.836;2024-02-23T01:18:22;84518.69;;;3.59;69.34
83496;BME280;73431;40.794;43.836;2024-02-23T01:20:50;84526.78;;;3.61;69.12
83496;BME280;73431;40.794;43.836;2024-02-23T01:23:18;84531.19;;;3.64;68.40
83496;BME280;73431;40.794;43.836;2024-02-23T01:25:45;84538.09;;;3.70;67.23
83496;BME280;73431;40.794;43.836;2024-02-23T01:28:13;84535.88;;;3.85;66.88
83496;BME280;73431;40.794;43.836;2024-02-23T01:30:41;84542.69;;;3.95;66.28
83496;BME280;73431;40.794;43.836;2024-02-23T01:33:08;84536.25;;;4.00;64.81
83496;BME280;73431;40.794;43.836;2024-02-23T01:35:36;84546.16;;;4.05;63.75
83496;BME280;73431;40.794;43.836;2024-02-23T01:38:05;84549.34;;;3.96;62.99
83496;BME280;73431;40.794;43.836;2024-02-23T01:40:33;84552.94;;;3.86;63.44
83496;BME280;73431;40.794;43.836;2024-02-23T01:43:04;84545.63;;;3.81;64.00
83496;BME280;73431;40.794;43.836;2024-02-23T01:45:32;84557.84;;;3.84;63.56
83496;BME280;73431;40.794;43.836;2024-02-23T01:48:01;84567.34;;;3.91;63.34
83496;BME280;73431;40.794;43.836;2024-02-23T01:50:31;84563.69;;;3.88;63.20
83496;BME280;73431;40.794;43.836;2024-02-23T01:53:01;84557.09;;;3.84;62.32
83496;BME280;73431;40.794;43.836;2024-02-23T01:55:31;84570.69;;;3.91;61.54
83496;BME280;73431;40.794;43.836;2024-02-23T01:58:04;84578.31;;;3.98;61.34
83496;BME280;73431;40.794;43.836;2024-02-23T02:00:35;84575.53;;;4.05;61.71
83496;BME280;73431;40.794;43.836;2024-02-23T02:03:04;84575.47;;;4.21;61.78
83496;BME280;73431;40.794;43.836;2024-02-23T02:05:37;84582.81;;;4.26;61.04
83496;BME280;73431;40.794;43.836;2024-02-23T02:08:05;84575.09;;;4.23;60.56
83496;BME280;73431;40.794;43.836;2024-02-23T02:10:33;84578.13;;;4.34;60.56
83496;BME280;73431;40.794;43.836;2024-02-23T02:13:05;84580.13;;;4.30;59.55
83496;BME280;73431;40.794;43.836;2024-02-23T02:15:33;84590.06;;;4.19;59.54
83496;BME280;73431;40.794;43.836;2024-02-23T02:18:01;84590.63;;;4.26;59.49
83496;BME280;73431;40.794;43.836;2024-02-23T02:20:32;84599.91;;;4.28;60.19
83496;BME280;73431;40.794;43.836;2024-02-23T02:23:01;84595.69;;;4.17;59.41
83496;BME280;73431;40.794;43.836;2024-02-23T02:25:29;84605.47;;;4.13;59.54
83496;BME280;73431;40.794;43.836;2024-02-23T02:27:56;84597.81;;;4.06;58.81
83496;BME280;73431;40.794;43.836;2024-02-23T02:30:24;84593.03;;;4.05;59.57
83496;BME280;73431;40.794;43.836;2024-02-23T02:32:52;84599.22;;;3.95;59.12
83496;BME280;73431;40.794;43.836;2024-02-23T02:35:19;84602.22;;;3.93;59.24
83496;BME280;73431;40.794;43.836;2024-02-23T02:37:47;84524.78;;;3.52;59.42
83496;BME280;73431;40.794;43.836;2024-02-23T02:40:16;84598.06;;;4.12;60.21
83496;BME280;73431;40.794;43.836;2024-02-23T02:42:44;84602.59;;;4.24;59.79
83496;BME280;73431;40.794;43.836;2024-02-23T02:45:12;84601.19;;;4.36;59.38
83496;BME280;73431;40.794;43.836;2024-02-23T02:47:41;84595.19;;;4.51;58.87
83496;BME280;73431;40.794;43.836;2024-02-23T02:50:09;84592.69;;;4.60;58.53
83496;BME280;73431;40.794;43.836;2024-02-23T02:52:37;84608.00;;;4.87;58.98
83496;BME280;73431;40.794;43.836;2024-02-23T02:55:04;84610.63;;;5.00;58.64
83496;BME280;73431;40.794;43.836;2024-02-23T02:57:32;84618.25;;;5.07;58.77
83496;BME280;73431;40.794;43.836;2024-02-23T03:00:00;84614.09;;;5.09;59.21
83496;BME280;73431;40.794;43.836;2024-02-23T03:02:29;84591.09;;;4.92;58.51
83496;BME280;73431;40.794;43.836;2024-02-23T03:04:57;84623.38;;;5.10;58.88
83496;BME280;73431;40.794;43.836;2024-02-23T03:07:25;84626.28;;;5.00;59.53
83496;BME280;73431;40.794;43.836;2024-02-23T03:09:53;84632.97;;;5.01;58.93
83496;BME280;73431;40.794;43.836;2024-02-23T03:12:21;84633.56;;;5.05;59.57
83496;BME280;73431;40.794;43.836;2024-02-23T03:14:49;84635.59;;;5.13;59.43
83496;BME280;73431;40.794;43.836;2024-02-23T03:17:17;84626.84;;;5.20;59.09
83496;BME280;73431;40.794;43.836;2024-02-23T03:19:44;84630.78;;;5.24;58.51
83496;BME280;73431;40.794;43.836;2024-02-23T03:22:12;84629.84;;;5.18;59.10
83496;BME280;73431;40.794;43.836;2024-02-23T03:24:40;84627.88;;;5.10;58.71
83496;BME280;73431;40.794;43.836;2024-02-23T03:27:08;84631.81;;;5.14;58.99
83496;BME280;73431;40.794;43.836;2024-02-23T03:29:37;84636.84;;;5.21;58.92
83496;BME280;73431;40.794;43.836;2024-02-23T03:32:06;84637.38;;;5.16;58.77
83496;BME280;73431;40.794;43.836;2024-02-23T03:34:33;84634.97;;;5.09;59.87
83496;BME280;73431;40.794;43.836;2024-02-23T03:37:01;84628.06;;;5.15;59.05
83496;BME280;73431;40.794;43.836;2024-02-23T03:39:30;84630.50;;;5.22;59.72
83496;BME280;73431;40.794;43.836;2024-02-23T03:42:00;84630.16;;;5.20;59.35
83496;BME280;73431;40.794;43.836;2024-02-23T03:44:27;84630.50;;;5.22;58.37
83496;BME280;73431;40.794;43.836;2024-02-23T03:46:55;84631.31;;;5.19;58.05
83496;BME280;73431;40.794;43.836;2024-02-23T03:49:23;84631.22;;;5.10;58.50
83496;BME280;73431;40.794;43.836;2024-02-23T03:51:51;84629.44;;;5.07;57.01
83496;BME280;73431;40.794;43.836;2024-02-23T03:54:19;84634.63;;;4.66;56.59
83496;BME280;73431;40.794;43.836;2024-02-23T03:56:47;84633.88;;;4.53;57.69
83496;BME280;73431;40.794;43.836;2024-02-23T03:59:14;84636.56;;;4.49;57.96
83496;BME280;73431;40.794;43.836;2024-02-23T04:01:42;84635.66;;;4.56;58.20
83496;BME280;73431;40.794;43.836;2024-02-23T04:04:11;84639.53;;;4.64;58.29
83496;BME280;73431;40.794;43.836;2024-02-23T04:06:39;84642.16;;;4.76;58.94
83496;BME280;73431;40.794;43.836;2024-02-23T04:09:07;84653.81;;;4.88;58.41
83496;BME280;73431;40.794;43.836;2024-02-23T04:11:36;84634.34;;;4.76;59.68
83496;BME280;73431;40.794;43.836;2024-02-23T04:14:04;84656.72;;;4.90;58.79
83496;BME280;73431;40.794;43.836;2024-02-23T04:16:34;84665.75;;;4.57;60.68
83496;BME280;73431;40.794;43.836;2024-02-23T04:19:03;84663.75;;;4.48;61.23
83496;BME280;73431;40.794;43.836;2024-02-23T04:21:31;84648.03;;;4.52;60.46
83496;BME280;73431;40.794;43.836;2024-02-23T04:23:59;84679.97;;;4.56;61.34
83496;BME280;73431;40.794;43.836;2024-02-23T04:26:26;84690.94;;;4.47;61.11
83496;BME280;73431;40.794;43.836;2024-02-23T04:28:55;84667.75;;;4.53;61.13
83496;BME280;73431;40.794;43.836;2024-02-23T04:31:22;84675.72;;;4.62;61.22
83496;BME280;73431;40.794;43.836;2024-02-23T04:33:50;84680.53;;;4.47;62.23
83496;BME280;73431;40.794;43.836;2024-02-23T04:36:21;84676.22;;;4.41;62.40
83496;BME280;73431;40.794;43.836;2024-02-23T04:38:49;84655.66;;;4.30;60.96
83496;BME280;73431;40.794;43.836;2024-02-23T04:41:19;84682.72;;;4.49;61.36
83496;BME280;73431;40.794;43.836;2024-02-23T04:43:49;84680.78;;;4.53;61.47
83496;BME280;73431;40.794;43.836;2024-02-23T04:46:16;84702.25;;;4.86;60.04
83496;BME280;73431;40.794;43.836;2024-02-23T04:48:44;84692.69;;;4.95;59.72
83496;BME280;73431;40.794;43.836;2024-02-23T04:51:12;84703.91;;;5.08;59.71
83496;BME280;73431;40.794;43.836;2024-02-23T04:53:40;84706.34;;;5.15;58.92
83496;BME280;73431;40.794;43.836;2024-02-23T04:56:08;84696.63;;;5.16;58.97
83496;BME280;73431;40.794;43.836;2024-02-23T04:58:36;84698.91;;;5.14;59.94
83496;BME280;73431;40.794;43.836;2024-02-23T05:01:05;84699.59;;;5.02;59.91
83496;BME280;73431;40.794;43.836;2024-02-23T05:03:32;84691.75;;;4.89;59.38
83496;BME280;73431;40.794;43.836;2024-02-23T05:06:00;84695.13;;;5.02;58.46
83496;BME280;73431;40.794;43.836;2024-02-23T05:08:29;84695.59;;;5.13;57.58
83496;BME280;73431;40.794;43.836;2024-02-23T05:10:57;84700.59;;;5.20;58.19
83496;BME280;73431;40.794;43.836;2024-02-23T05:13:25;84712.84;;;5.36;57.72
83496;BME280;73431;40.794;43.836;2024-02-23T05:15:55;84708.47;;;5.46;56.81
83496;BME280;73431;40.794;43.836;2024-02-23T05:18:24;84722.50;;;5.52;55.95
83496;BME280;73431;40.794;43.836;2024-02-23T05:20:52;84716.63;;;5.48;55.56
83496;BME280;73431;40.794;43.836;2024-02-23T05:23:21;84708.16;;;5.44;54.83
83496;BME280;73431;40.794;43.836;2024-02-23T05:25:49;84713.19;;;5.38;54.68
83496;BME280;73431;40.794;43.836;2024-02-23T05:28:17;84715.97;;;5.31;55.30
83496;BME280;73431;40.794;43.836;2024-02-23T05:30:45;84720.53;;;5.27;55.80
83496;BME280;73431;40.794;43.836;2024-02-23T05:33:13;84733.72;;;5.36;54.46
83496;BME280;73431;40.794;43.836;2024-02-23T05:35:40;84737.16;;;5.33;55.16
83496;BME280;73431;40.794;43.836;2024-02-23T05:38:09;84744.81;;;5.40;53.54
83496;BME280;73431;40.794;43.836;2024-02-23T05:40:37;84750.38;;;5.55;54.43
83496;BME280;73431;40.794;43.836;2024-02-23T05:43:05;84757.63;;;5.76;54.33
83496;BME280;73431;40.794;43.836;2024-02-23T05:45:33;84769.47;;;5.93;54.57
83496;BME280;73431;40.794;43.836;2024-02-23T05:48:01;84765.81;;;6.03;54.52
83496;BME280;73431;40.794;43.836;2024-02-23T05:50:29;84765.09;;;6.28;54.52
83496;BME280;73431;40.794;43.836;2024-02-23T05:52:57;84750.03;;;6.19;53.24
83496;BME280;73431;40.794;43.836;2024-02-23T05:55:25;84763.63;;;6.27;52.47
83496;BME280;73431;40.794;43.836;2024-02-23T05:57:53;84761.22;;;6.20;51.06
83496;BME280;73431;40.794;43.836;2024-02-23T06:00:20;84761.75;;;6.15;52.53
83496;BME280;73431;40.794;43.836;2024-02-23T06:02:49;84745.44;;;6.11;52.67
83496;BME280;73431;40.794;43.836;2024-02-23T06:05:17;84742.19;;;5.94;52.52
83496;BME280;73431;40.794;43.836;2024-02-23T06:07:45;84752.34;;;5.92;53.04
83496;BME280;73431;40.794;43.836;2024-02-23T06:10:12;84760.47;;;5.94;54.08
83496;BME280;73431;40.794;43.836;2024-02-23T06:12:40;84769.91;;;6.04;53.25
83496;BME280;73431;40.794;43.836;2024-02-23T06:15:08;84773.88;;;5.96;52.13
83496;BME280;73431;40.794;43.836;2024-02-23T06:17:37;84747.25;;;5.72;52.63
83496;BME280;73431;40.794;43.836;2024-02-23T06:20:07;84771.59;;;5.69;49.97
83496;BME280;73431;40.794;43.836;2024-02-23T06:22:35;84767.94;;;5.67;53.76
83496;BME280;73431;40.794;43.836;2024-02-23T06:25:03;84755.31;;;5.78;52.22
83496;BME280;73431;40.794;43.836;2024-02-23T06:27:30;84757.81;;;5.81;52.80
83496;BME280;73431;40.794;43.836;2024-02-23T06:29:58;84756.31;;;5.97;53.78
83496;BME280;73431;40.794;43.836;2024-02-23T06:32:26;84744.91;;;6.03;52.59
83496;BME280;73431;40.794;43.836;2024-02-23T06:34:54;84754.13;;;6.08;51.85
83496;BME280;73431;40.794;43.836;2024-02-23T06:37:26;84747.13;;;6.05;53.65
83496;BME280;73431;40.794;43.836;2024-02-23T06:39:53;84739.38;;;6.01;51.88
83496;BME280;73431;40.794;43.836;2024-02-23T06:42:22;84748.66;;;5.77;52.54
83496;BME280;73431;40.794;43.836;2024-02-23T06:44:50;84752.50;;;5.72;53.78
83496;BME280;73431;40.794;43.836;2024-02-23T06:47:17;84754.47;;;5.81;52.06
83496;BME280;73431;40.794;43.836;2024-02-23T06:49:46;84741.81;;;5.54;52.70
83496;BME280;73431;40.794;43.836;2024-02-23T06:52:14;84713.47;;;5.27;53.46
83496;BME280;73431;40.794;43.836;2024-02-23T06:54:41;84780.59;;;5.81;54.25
83496;BME280;73431;40.794;43.836;2024-02-23T06:57:09;84790.78;;;5.92;53.52
83496;BME280;73431;40.794;43.836;2024-02-23T06:59:37;84783.59;;;5.96;52.13
83496;BME280;73431;40.794;43.836;2024-02-23T07:02:04;84787.69;;;6.09;51.81
83496;BME280;73431;40.794;43.836;2024-02-23T07:04:32;84789.22;;;6.19;52.25
83496;BME280;73431;40.794;43.836;2024-02-23T07:07:00;84786.84;;;6.25;49.20
83496;BME280;73431;40.794;43.836;2024-02-23T07:09:34;84776.59;;;6.05;49.60
83496;BME280;73431;40.794;43.836;2024-02-23T07:12:02;84773.66;;;6.03;51.99
83496;BME280;73431;40.794;43.836;2024-02-23T07:14:30;84757.66;;;6.01;51.89
83496;BME280;73431;40.794;43.836;2024-02-23T07:16:58;84752.44;;;6.14;51.85
83496;BME280;73431;40.794;43.836;2024-02-23T07:19:26;84689.09;;;5.84;52.07
83496;BME280;73431;40.794;43.836;2024-02-23T07:21:54;84756.31;;;6.47;51.75
83496;BME280;73431;40.794;43.836;2024-02-23T07:24:22;84757.38;;;6.37;50.66
83496;BME280;73431;40.794;43.836;2024-02-23T07:26:49;84750.16;;;6.28;51.34
83496;BME280;73431;40.794;43.836;2024-02-23T07:29:17;84763.09;;;6.32;49.33
83496;BME280;73431;40.794;43.836;2024-02-23T07:31:45;84772.63;;;6.13;49.11
83496;BME280;73431;40.794;43.836;2024-02-23T07:34:13;84766.34;;;6.11;51.50
83496;BME280;73431;40.794;43.836;2024-02-23T07:36:41;84765.69;;;5.94;50.68
83496;BME280;73431;40.794;43.836;2024-02-23T07:39:10;84770.00;;;6.01;51.08
83496;BME280;73431;40.794;43.836;2024-02-23T07:41:39;84779.00;;;6.12;51.19
83496;BME280;73431;40.794;43.836;2024-02-23T07:44:07;84772.50;;;6.17;49.98
83496;BME280;73431;40.794;43.836;2024-02-23T07:46:34;84771.03;;;6.16;48.99
83496;BME280;73431;40.794;43.836;2024-02-23T07:49:05;84765.00;;;6.19;49.48
83496;BME280;73431;40.794;43.836;2024-02-23T07:51:36;84772.09;;;6.31;50.25
83496;BME280;73431;40.794;43.836;2024-02-23T07:54:05;84777.34;;;6.44;49.08
83496;BME280;73431;40.794;43.836;2024-02-23T07:56:32;84780.44;;;6.38;48.05
83496;BME280;73431;40.794;43.836;2024-02-23T07:59:00;84780.56;;;6.48;47.71
83496;BME280;73431;40.794;43.836;2024-02-23T08:01:30;84778.88;;;6.66;48.51
83496;BME280;73431;40.794;43.836;2024-02-23T08:03:58;84782.31;;;6.88;49.00
83496;BME280;73431;40.794;43.836;2024-02-23T08:06:26;84780.84;;;6.75;45.37
83496;BME280;73431;40.794;43.836;2024-02-23T08:08:53;84782.94;;;6.80;47.47
83496;BME280;73431;40.794;43.836;2024-02-23T08:11:22;84784.19;;;6.88;47.16
83496;BME280;73431;40.794;43.836;2024-02-23T08:13:50;84785.53;;;6.92;47.90
83496;BME280;73431;40.794;43.836;2024-02-23T08:16:17;84781.28;;;6.86;45.72
83496;BME280;73431;40.794;43.836;2024-02-23T08:18:45;84773.94;;;6.81;47.56
83496;BME280;73431;40.794;43.836;2024-02-23T08:21:13;84771.84;;;6.88;48.21
83496;BME280;73431;40.794;43.836;2024-02-23T08:23:41;84771.41;;;6.90;46.46
83496;BME280;73431;40.794;43.836;2024-02-23T08:26:08;84768.50;;;6.88;48.30
83496;BME280;73431;40.794;43.836;2024-02-23T08:28:37;84738.78;;;6.82;47.17
83496;BME280;73431;40.794;43.836;2024-02-23T08:31:05;84757.84;;;6.82;44.17
83496;BME280;73431;40.794;43.836;2024-02-23T08:33:33;84766.13;;;6.68;44.39
83496;BME280;73431;40.794;43.836;2024-02-23T08:36:01;84770.19;;;6.69;45.37
83496;BME280;73431;40.794;43.836;2024-02-23T08:38:29;84769.28;;;6.63;44.25
83496;BME280;73431;40.794;43.836;2024-02-23T08:40:57;84753.06;;;6.56;46.59
83496;BME280;73431;40.794;43.836;2024-02-23T08:43:25;84764.78;;;6.38;45.56
83496;BME280;73431;40.794;43.836;2024-02-23T08:45:52;84752.22;;;6.46;47.70
83496;BME280;73431;40.794;43.836;2024-02-23T08:48:20;84759.66;;;6.60;44.98
83496;BME280;73431;40.794;43.836;2024-02-23T08:50:49;84762.34;;;6.69;47.00
83496;BME280;73431;40.794;43.836;2024-02-23T08:53:16;84699.44;;;6.13;44.20
83496;BME280;73431;40.794;43.836;2024-02-23T08:55:44;84760.25;;;6.64;46.24
83496;BME280;73431;40.794;43.836;2024-02-23T08:58:12;84771.88;;;6.63;43.94
83496;BME280;73431;40.794;43.836;2024-02-23T09:00:40;84752.84;;;6.63;46.97
83496;BME280;73431;40.794;43.836;2024-02-23T09:03:08;84747.56;;;6.88;47.05
83496;BME280;73431;40.794;43.836;2024-02-23T09:05:35;84747.44;;;7.26;48.06
83496;BME280;73431;40.794;43.836;2024-02-23T09:08:04;84749.22;;;7.29;43.86
83496;BME280;73431;40.794;43.836;2024-02-23T09:10:32;84751.03;;;7.19;43.76
83496;BME280;73431;40.794;43.836;2024-02-23T09:13:00;84732.28;;;7.21;47.19
83496;BME280;73431;40.794;43.836;2024-02-23T09:15:29;84743.56;;;7.52;44.45
83496;BME280;73431;40.794;43.836;2024-02-23T09:17:57;84740.34;;;7.48;45.03
83496;BME280;73431;40.794;43.836;2024-02-23T09:20:24;84738.94;;;7.56;44.90
83496;BME280;73431;40.794;43.836;2024-02-23T09:22:54;84748.63;;;7.68;46.12
83496;BME280;73431;40.794;43.836;2024-02-23T09:25:22;84739.91;;;7.71;43.42
83496;BME280;73431;40.794;43.836;2024-02-23T09:27:50;84735.75;;;7.83;45.33
83496;BME280;73431;40.794;43.836;2024-02-23T09:30:18;84743.06;;;7.88;43.09
83496;BME280;73431;40.794;43.836;2024-02-23T09:32:46;84740.72;;;8.12;44.50
83496;BME280;73431;40.794;43.836;2024-02-23T09:35:14;84738.31;;;8.26;45.16
83496;BME280;73431;40.794;43.836;2024-02-23T09:37:43;84737.97;;;8.46;44.36
83496;BME280;73431;40.794;43.836;2024-02-23T09:40:11;84725.09;;;8.88;43.03
83496;BME280;73431;40.794;43.836;2024-02-23T09:42:38;84728.09;;;9.35;43.90
83496;BME280;73431;40.794;43.836;2024-02-23T09:45:08;84719.03;;;9.18;42.06
83496;BME280;73431;40.794;43.836;2024-02-23T09:47:38;84746.72;;;9.01;41.06
83496;BME280;73431;40.794;43.836;2024-02-23T09:50:08;84746.94;;;8.67;41.81
83496;BME280;73431;40.794;43.836;2024-02-23T09:52:36;84747.53;;;8.31;39.57
83496;BME280;73431;40.794;43.836;2024-02-23T09:55:04;84741.34;;;8.56;43.99
83496;BME280;73431;40.794;43.836;2024-02-23T09:57:33;84747.31;;;8.96;43.49
83496;BME280;73431;40.794;43.836;2024-02-23T10:00:01;84739.78;;;9.25;42.83
83496;BME280;73431;40.794;43.836;2024-02-23T10:02:39;84719.31;;;9.11;40.01
83496;BME280;73431;40.794;43.836;2024-02-23T10:05:08;84748.53;;;9.40;40.80
83496;BME280;73431;40.794;43.836;2024-02-23T10:07:37;84743.56;;;9.61;43.22
83496;BME280;73431;40.794;43.836;2024-02-23T10:10:08;84744.59;;;9.63;42.44
83496;BME280;73431;40.794;43.836;2024-02-23T10:12:38;84740.34;;;9.75;41.95
83496;BME280;73431;40.794;43.836;2024-02-23T10:15:07;84737.13;;;9.62;41.88
83496;BME280;73431;40.794;43.836;2024-02-23T10:17:35;84735.66;;;9.88;38.97
83496;BME280;73431;40.794;43.836;2024-02-23T10:20:03;84734.50;;;9.89;41.67
83496;BME280;73431;40.794;43.836;2024-02-23T10:22:32;84733.19;;;9.75;39.74
83496;BME280;73431;40.794;43.836;2024-02-23T10:25:00;84742.97;;;9.84;40.44
83496;BME280;73431;40.794;43.836;2024-02-23T10:27:28;84745.47;;;9.78;38.34
83496;BME280;73431;40.794;43.836;2024-02-23T10:29:56;84734.47;;;9.16;36.98
83496;BME280;73431;40.794;43.836;2024-02-23T10:32:25;84739.03;;;9.25;40.31
83496;BME280;73431;40.794;43.836;2024-02-23T10:34:55;84742.81;;;9.15;38.47
83496;BME280;73431;40.794;43.836;2024-02-23T10:37:26;84748.06;;;9.24;37.86
83496;BME280;73431;40.794;43.836;2024-02-23T10:39:57;84738.91;;;9.28;39.15
83496;BME280;73431;40.794;43.836;2024-02-23T10:42:29;84731.84;;;9.07;35.68
83496;BME280;73431;40.794;43.836;2024-02-23T10:44:59;84743.09;;;9.08;36.83
83496;BME280;73431;40.794;43.836;2024-02-23T10:47:30;84737.16;;;9.43;39.49
83496;BME280;73431;40.794;43.836;2024-02-23T10:50:02;84734.22;;;9.32;37.38
83496;BME280;73431;40.794;43.836;2024-02-23T10:52:30;84736.97;;;9.20;37.10
83496;BME280;73431;40.794;43.836;2024-02-23T10:55:00;84736.84;;;9.41;36.58
83496;BME280;73431;40.794;43.836;2024-02-23T10:57:34;84739.19;;;9.21;36.84
83496;BME280;73431;40.794;43.836;2024-02-23T11:00:03;84737.44;;;9.36;37.68
83496;BME280;73431;40.794;43.836;2024-02-23T11:02:49;84753.47;;;9.29;36.71
83496;BME280;73431;40.794;43.836;2024-02-23T11:05:19;84735.97;;;9.72;37.42
83496;BME280;73431;40.794;43.836;2024-02-23T11:07:48;84741.50;;;9.92;38.60
83496;BME280;73431;40.794;43.836;2024-02-23T11:10:19;84733.88;;;10.12;37.70
83496;BME280;73431;40.794;43.836;2024-02-23T11:12:58;84731.78;;;10.34;36.58
83496;BME280;73431;40.794;43.836;2024-02-23T11:15:28;84735.28;;;10.40;36.72
83496;BME280;73431;40.794;43.836;2024-02-23T11:17:57;84749.09;;;10.08;36.03
83496;BME280;73431;40.794;43.836;2024-02-23T11:20:24;84745.72;;;9.89;36.16
83496;BME280;73431;40.794;43.836;2024-02-23T11:23:01;84749.13;;;9.72;38.28
83496;BME280;73431;40.794;43.836;2024-02-23T11:25:29;84716.09;;;9.71;39.00
83496;BME280;73431;40.794;43.836;2024-02-23T11:27:57;84738.88;;;10.01;37.90
83496;BME280;73431;40.794;43.836;2024-02-23T11:30:26;84735.22;;;9.89;36.88
83496;BME280;73431;40.794;43.836;2024-02-23T11:32:59;84737.56;;;10.15;36.19
83496;BME280;73431;40.794;43.836;2024-02-23T11:35:27;84743.94;;;10.32;38.05
83496;BME280;73431;40.794;43.836;2024-02-23T11:37:56;84741.75;;;10.21;36.07
83496;BME280;73431;40.794;43.836;2024-02-23T11:40:29;84737.97;;;10.04;38.38
83496;BME280;73431;40.794;43.836;2024-02-23T11:42:58;84747.19;;;10.69;37.11
83496;BME280;73431;40.794;43.836;2024-02-23T11:45:30;84728.88;;;11.78;35.39
83496;BME280;73431;40.794;43.836;2024-02-23T11:47:58;84731.41;;;12.11;34.51
83496;BME280;73431;40.794;43.836;2024-02-23T11:50:27;84740.56;;;11.86;32.58
83496;BME280;73431;40.794;43.836;2024-02-23T11:52:55;84738.94;;;11.41;36.72
83496;BME280;73431;40.794;43.836;2024-02-23T11:55:23;84715.16;;;11.50;36.78
83496;BME280;73431;40.794;43.836;2024-02-23T11:57:51;84731.41;;;12.11;36.04
83496;BME280;73431;40.794;43.836;2024-02-23T12:00:32;84727.13;;;12.57;34.71
83496;BME280;73431;40.794;43.836;2024-02-23T12:03:00;84729.03;;;11.98;34.71
83496;BME280;73431;40.794;43.836;2024-02-23T12:05:28;84719.28;;;12.78;32.48
83496;BME280;73431;40.794;43.836;2024-02-23T12:07:56;84720.72;;;14.03;32.78
83496;BME280;73431;40.794;43.836;2024-02-23T12:10:26;84724.06;;;13.78;30.98
83496;BME280;73431;40.794;43.836;2024-02-23T12:12:54;84729.72;;;14.83;31.70
83496;BME280;73431;40.794;43.836;2024-02-23T12:15:23;84727.94;;;15.68;30.37
83496;BME280;73431;40.794;43.836;2024-02-23T12:17:58;84724.78;;;15.33;26.28
83496;BME280;73431;40.794;43.836;2024-02-23T12:20:27;84733.50;;;16.24;30.65
83496;BME280;73431;40.794;43.836;2024-02-23T12:22:55;84724.66;;;16.49;29.91
83496;BME280;73431;40.794;43.836;2024-02-23T12:25:24;84739.84;;;15.47;26.93
83496;BME280;73431;40.794;43.836;2024-02-23T12:27:55;84733.22;;;15.68;27.23
83496;BME280;73431;40.794;43.836;2024-02-23T12:30:24;84717.75;;;16.90;29.94
83496;BME280;73431;40.794;43.836;2024-02-23T12:33:04;84720.41;;;17.79;25.69
83496;BME280;73431;40.794;43.836;2024-02-23T12:35:33;84727.13;;;17.97;27.14
83496;BME280;73431;40.794;43.836;2024-02-23T12:38:02;84725.19;;;16.70;30.51
83496;BME280;73431;40.794;43.836;2024-02-23T12:40:30;84737.91;;;15.16;27.44
83496;BME280;73431;40.794;43.836;2024-02-23T12:42:58;84743.00;;;14.17;32.69
83496;BME280;73431;40.794;43.836;2024-02-23T12:45:26;84746.28;;;13.02;29.34
83496;BME280;73431;40.794;43.836;2024-02-23T12:47:53;84756.88;;;12.14;32.08
83496;BME280;73431;40.794;43.836;2024-02-23T12:50:21;84765.06;;;11.54;31.33
83496;BME280;73431;40.794;43.836;2024-02-23T12:52:49;84752.03;;;11.27;32.51
83496;BME280;73431;40.794;43.836;2024-02-23T12:55:16;84758.66;;;10.89;35.00
83496;BME280;73431;40.794;43.836;2024-02-23T12:57:44;84762.69;;;10.67;35.78
83496;BME280;73431;40.794;43.836;2024-02-23T13:00:12;84762.00;;;10.57;36.02
83496;BME280;73431;40.794;43.836;2024-02-23T13:02:40;84751.72;;;10.08;35.83
83496;BME280;73431;40.794;43.836;2024-02-23T13:05:08;84751.16;;;9.86;35.85
83496;BME280;73431;40.794;43.836;2024-02-23T13:07:36;84770.88;;;9.63;36.31